Time,TemperatureF,DewpointF,PressureIn,WindDirection,WindDirectionDegrees,WindSpeedMPH,WindSpeedGustMPH,Humidity,HourlyPrecipIn,Conditions,Clouds,dailyrainin,SoftwareType,DateUTC
2013-05-16 00:02:00,76.0,55.0,-100.00,North,355,0.0,0.0,48,0.00,,,-99.99,,2013-05-16 04:02:00,
2013-05-16 00:12:00,76.0,55.0,-100.00,NNE,15,0.0,0.0,48,0.00,,,-99.99,,2013-05-16 04:12:00,
2013-05-16 00:23:00,75.0,55.0,-100.00,North,0,0.0,0.0,48,0.00,,,-99.99,,2013-05-16 04:23:00,
2013-05-16 00:33:00,75.0,55.0,-100.00,North,0,0.0,0.0,49,0.00,,,-99.99,,2013-05-16 04:33:00,
2013-05-16 00:42:00,75.0,55.0,-100.00,North,0,0.0,0.0,48,0.00,,,-99.99,,2013-05-16 04:42:00,
2013-05-16 00:53:00,75.0,55.0,-100.00,North,0,0.0,0.0,49,0.00,,,-99.99,,2013-05-16 04:53:00,
2013-05-16 01:02:00,75.0,54.0,-100.00,NNE,15,0.0,0.0,48,0.00,,,-99.99,,2013-05-16 05:02:00,
2013-05-16 01:12:00,75.0,55.0,-100.00,NNE,15,0.0,0.0,49,0.00,,,-99.99,,2013-05-16 05:12:00,
2013-05-16 01:22:00,75.0,55.0,-100.00,NNE,15,0.0,0.0,49,0.00,,,-99.99,,2013-05-16 05:22:00,
2013-05-16 01:32:00,75.0,55.0,-100.00,NNE,25,0.0,0.0,49,0.00,,,-99.99,,2013-05-16 05:32:00,
2013-05-16 01:42:00,74.0,56.0,-100.00,NNE,25,0.0,0.0,53,0.00,,,-99.99,,2013-05-16 05:42:00,
2013-05-16 01:52:00,74.0,56.0,-100.00,NNE,15,0.0,0.0,53,1.69,,,-99.99,,2013-05-16 05:52:00,
2013-05-16 02:02:00,71.0,59.0,-100.00,NNE,20,0.0,0.0,64,5.67,,,-99.99,,2013-05-16 06:02:00,
2013-05-16 02:12:00,67.0,61.0,-100.00,NNE,25,0.0,0.0,83,0.00,,,-99.99,,2013-05-16 06:12:00,
2013-05-16 02:22:00,67.0,61.0,-100.00,North,10,0.0,0.0,80,0.55,,,-99.99,,2013-05-16 06:22:00,
2013-05-16 02:33:00,68.0,60.0,-100.00,NNE,30,0.0,0.0,75,0.00,,,-99.99,,2013-05-16 06:33:00,
2013-05-16 02:43:00,67.0,60.0,-100.00,ENE,70,0.0,0.0,78,0.00,,,-99.99,,2013-05-16 06:43:00,
2013-05-16 02:52:00,67.0,60.0,-100.00,North,0,0.0,0.0,79,0.55,,,-99.99,,2013-05-16 06:52:00,
2013-05-16 03:02:00,67.0,61.0,-100.00,NW,325,0.0,0.0,83,0.55,,,-99.99,,2013-05-16 07:02:00,
2013-05-16 03:12:00,67.0,61.0,-100.00,North,0,0.0,0.0,81,0.00,,,-99.99,,2013-05-16 07:12:00,
2013-05-16 03:24:00,66.0,61.0,-100.00,NNE,15,0.0,0.0,82,0.00,,,-99.99,,2013-05-16 07:24:00,
2013-05-16 03:34:00,66.0,61.0,-100.00,North,10,0.0,0.0,82,0.00,,,-99.99,,2013-05-16 07:34:00,
2013-05-16 03:44:00,67.0,60.0,-100.00,ESE,115,0.0,0.0,81,0.00,,,-99.99,,2013-05-16 07:44:00,
2013-05-16 03:54:00,66.0,61.0,-100.00,North,0,0.0,0.0,82,0.00,,,-99.99,,2013-05-16 07:54:00,
2013-05-16 04:03:00,66.0,61.0,-100.00,NNW,345,0.0,0.0,84,0.00,,,-99.99,,2013-05-16 08:03:00,
2013-05-16 04:13:00,66.0,60.0,-100.00,NE,40,0.0,0.0,81,0.00,,,-99.99,,2013-05-16 08:13:00,
2013-05-16 04:24:00,66.0,60.0,-100.00,NE,50,0.0,0.0,80,0.55,,,-99.99,,2013-05-16 08:24:00,
2013-05-16 04:34:00,66.0,60.0,-100.00,East,90,0.0,0.0,82,3.39,,,-99.99,,2013-05-16 08:34:00,
2013-05-16 04:45:00,65.0,61.0,-100.00,East,95,0.0,0.0,87,1.69,,,-99.99,,2013-05-16 08:45:00,
2013-05-16 04:54:00,65.0,62.0,-100.00,NE,50,0.0,0.0,89,2.24,,,-99.99,,2013-05-16 08:54:00,
2013-05-16 05:04:00,65.0,62.0,-100.00,NE,35,0.0,0.0,90,0.00,,,-99.99,,2013-05-16 09:04:00,
2013-05-16 05:14:00,65.0,63.0,-100.00,North,0,0.0,0.0,92,0.00,,,-99.99,,2013-05-16 09:14:00,
2013-05-16 05:24:00,65.0,63.0,-100.00,North,10,0.0,0.0,92,0.00,,,-99.99,,2013-05-16 09:24:00,
2013-05-16 05:35:00,66.0,63.0,-100.00,NE,40,0.0,0.0,92,0.00,,,-99.99,,2013-05-16 09:35:00,
2013-05-16 05:45:00,66.0,63.0,-100.00,North,0,0.0,0.0,92,0.00,,,-99.99,,2013-05-16 09:45:00,
2013-05-16 05:55:00,65.0,63.0,-100.00,North,10,0.0,0.0,92,0.00,,,-99.99,,2013-05-16 09:55:00,
2013-05-16 06:05:00,65.0,63.0,-100.00,NNE,15,0.0,0.0,92,0.00,,,-99.99,,2013-05-16 10:05:00,
2013-05-16 06:15:00,65.0,62.0,-100.00,NE,35,0.0,0.0,89,0.00,,,-99.99,,2013-05-16 10:15:00,
2013-05-16 06:24:00,65.0,62.0,-100.00,NNE,15,0.0,0.0,90,0.00,,,-99.99,,2013-05-16 10:24:00,
2013-05-16 06:36:00,65.0,62.0,-100.00,North,5,0.0,0.0,92,0.00,,,-99.99,,2013-05-16 10:36:00,
2013-05-16 06:45:00,65.0,62.0,-100.00,ESE,110,0.0,0.0,88,0.00,,,-99.99,,2013-05-16 10:45:00,
2013-05-16 06:56:00,65.0,62.0,-100.00,North,0,0.0,0.0,90,0.00,,,-99.99,,2013-05-16 10:56:00,
2013-05-16 07:05:00,65.0,62.0,-100.00,NNE,15,0.0,0.0,90,0.00,,,-99.99,,2013-05-16 11:05:00,
2013-05-16 07:14:00,65.0,62.0,-100.00,NNE,20,0.0,0.0,91,0.00,,,-99.99,,2013-05-16 11:14:00,
2013-05-16 07:25:00,65.0,62.0,-100.00,ENE,75,0.0,0.0,90,0.00,,,-99.99,,2013-05-16 11:25:00,
2013-05-16 07:35:00,65.0,62.0,-100.00,ESE,105,0.0,0.0,90,0.00,,,-99.99,,2013-05-16 11:35:00,
2013-05-16 07:46:00,66.0,63.0,-100.00,SSW,195,0.0,0.0,91,0.00,,,-99.99,,2013-05-16 11:46:00,
2013-05-16 07:56:00,65.0,63.0,-100.00,North,350,0.0,0.0,93,0.00,,,-99.99,,2013-05-16 11:56:00,
2013-05-16 08:06:00,66.0,63.0,-100.00,North,0,0.0,0.0,92,0.00,,,-99.99,,2013-05-16 12:06:00,
2013-05-16 08:13:00,67.0,64.0,-100.00,North,5,0.0,0.0,90,0.00,,,-99.99,,2013-05-16 12:13:00,
2013-05-16 08:23:00,66.0,64.0,-100.00,NNE,30,0.0,0.0,93,0.00,,,-99.99,,2013-05-16 12:23:00,
2013-05-16 08:35:00,67.0,63.0,-100.00,ESE,120,0.0,0.0,88,0.00,,,-99.99,,2013-05-16 12:35:00,
2013-05-16 08:45:00,67.0,63.0,-100.00,ESE,105,0.0,0.0,88,0.00,,,-99.99,,2013-05-16 12:45:00,
2013-05-16 08:53:00,67.0,64.0,-100.00,North,10,0.0,0.0,91,0.00,,,-99.99,,2013-05-16 12:53:00,
2013-05-16 09:04:00,66.0,64.0,-100.00,North,0,0.0,0.0,91,0.00,,,-99.99,,2013-05-16 13:04:00,
2013-05-16 09:12:00,67.0,64.0,-100.00,North,0,0.0,0.0,91,0.00,,,-99.99,,2013-05-16 13:12:00,
2013-05-16 09:26:00,68.0,64.0,-100.00,North,5,0.0,0.0,89,0.00,,,-99.99,,2013-05-16 13:26:00,
2013-05-16 09:35:00,68.0,64.0,-100.00,North,0,0.0,0.0,87,0.00,,,-99.99,,2013-05-16 13:35:00,
2013-05-16 09:43:00,68.0,64.0,-100.00,NNW,335,0.0,0.0,86,0.00,,,-99.99,,2013-05-16 13:43:00,
2013-05-16 09:55:00,69.0,64.0,-100.00,NW,320,0.0,0.0,84,0.00,,,-99.99,,2013-05-16 13:55:00,
2013-05-16 10:05:00,71.0,64.0,-100.00,North,10,0.0,0.0,79,0.00,,,-99.99,,2013-05-16 14:05:00,
2013-05-16 10:16:00,70.0,64.0,-100.00,North,10,0.0,0.0,81,0.00,,,-99.99,,2013-05-16 14:16:00,
2013-05-16 10:23:00,71.0,61.0,-100.00,North,10,0.0,0.0,73,0.00,,,-99.99,,2013-05-16 14:23:00,
2013-05-16 10:37:00,71.0,62.0,-100.00,North,0,0.0,0.0,73,0.00,,,-99.99,,2013-05-16 14:37:00,
2013-05-16 10:47:00,72.0,61.0,-100.00,North,0,0.0,0.0,69,0.00,,,-99.99,,2013-05-16 14:47:00,
2013-05-16 10:55:00,73.0,62.0,-100.00,North,0,0.0,0.0,68,0.00,,,-99.99,,2013-05-16 14:55:00,
2013-05-16 11:08:00,73.0,60.0,-100.00,NNE,25,0.0,0.0,64,0.00,,,-99.99,,2013-05-16 15:08:00,
2013-05-16 11:17:00,73.0,60.0,-100.00,NNE,20,0.0,0.0,62,0.00,,,-99.99,,2013-05-16 15:17:00,
2013-05-16 11:28:00,73.0,61.0,-100.00,NNW,340,0.0,0.0,66,0.00,,,-99.99,,2013-05-16 15:28:00,
2013-05-16 11:40:00,72.0,60.0,-100.00,NW,315,0.0,0.0,64,0.00,,,-99.99,,2013-05-16 15:40:00,
2013-05-16 11:50:00,73.0,60.0,-100.00,North,0,0.0,0.0,63,0.00,,,-99.99,,2013-05-16 15:50:00,
2013-05-16 12:00:00,74.0,61.0,-100.00,NW,325,0.0,0.0,64,0.00,,,-99.99,,2013-05-16 16:00:00,
2013-05-16 12:09:00,73.0,60.0,-100.00,NNE,20,0.0,0.0,63,0.00,,,-99.99,,2013-05-16 16:09:00,
2013-05-16 12:20:00,73.0,60.0,-100.00,North,350,0.0,0.0,64,0.00,,,-99.99,,2013-05-16 16:20:00,
2013-05-16 12:30:00,73.0,60.0,-100.00,North,0,0.0,0.0,65,0.00,,,-99.99,,2013-05-16 16:30:00,
2013-05-16 12:40:00,72.0,-99.9,-100.00,North,350,0.0,0.0,66,0.00,,,-99.99,,2013-05-16 16:40:00,
2013-05-16 12:50:00,71.0,62.0,-100.00,North,0,0.0,0.0,75,0.00,,,-99.99,,2013-05-16 16:50:00,
2013-05-16 13:00:00,69.0,64.0,-100.00,NW,320,0.0,0.0,83,0.00,,,-99.99,,2013-05-16 17:00:00,
2013-05-16 13:10:00,69.0,63.0,-100.00,North,0,0.0,0.0,82,0.00,,,-99.99,,2013-05-16 17:10:00,
2013-05-16 13:20:00,69.0,64.0,-100.00,NNE,20,0.0,0.0,82,0.00,,,-99.99,,2013-05-16 17:20:00,
2013-05-16 13:31:00,70.0,64.0,-100.00,NNE,20,0.0,0.0,81,0.00,,,-99.99,,2013-05-16 17:31:00,
2013-05-16 13:40:00,70.0,63.0,-100.00,North,0,0.0,0.0,80,0.00,,,-99.99,,2013-05-16 17:40:00,
2013-05-16 13:50:00,70.0,-99.9,-100.00,North,5,0.0,0.0,79,0.00,,,-99.99,,2013-05-16 17:50:00,
2013-05-16 14:00:00,70.0,-99.9,-100.00,NNE,15,0.0,0.0,80,0.00,,,-99.99,,2013-05-16 18:00:00,
2013-05-16 14:10:00,70.0,62.0,-100.00,North,355,0.0,0.0,76,0.00,,,-99.99,,2013-05-16 18:10:00,
2013-05-16 14:20:00,71.0,62.0,-100.00,NNW,345,0.0,0.0,74,0.00,,,-99.99,,2013-05-16 18:20:00,
2013-05-16 14:30:00,-999.0,-99.9,-100.00,WNW,295,0.0,0.0,74,0.00,,,-99.99,,2013-05-16 18:30:00,
2013-05-16 14:40:00,-999.0,-99.9,-100.00,North,5,0.0,0.0,74,0.00,,,-99.99,,2013-05-16 18:40:00,
2013-05-16 14:50:00,-999.0,-99.9,-100.00,North,355,0.0,0.0,75,0.00,,,-99.99,,2013-05-16 18:50:00,
2013-05-16 15:00:00,-999.0,-99.9,-100.00,NNE,20,0.0,0.0,65,0.00,,,-99.99,,2013-05-16 19:00:00,
2013-05-16 15:10:00,72.0,-99.9,-100.00,North,10,0.0,0.0,65,0.00,,,-99.99,,2013-05-16 19:10:00,
2013-05-16 15:20:00,73.0,60.0,-100.00,NNE,25,0.0,0.0,63,0.00,,,-99.99,,2013-05-16 19:20:00,
2013-05-16 15:30:00,73.0,60.0,-100.00,North,0,0.0,0.0,64,0.00,,,-99.99,,2013-05-16 19:30:00,
2013-05-16 15:40:00,72.0,-99.9,-100.00,NNW,340,0.0,0.0,64,0.00,,,-99.99,,2013-05-16 19:40:00,
2013-05-16 15:50:00,-999.0,-99.9,-100.00,North,355,0.0,0.0,61,0.00,,,-99.99,,2013-05-16 19:50:00,
2013-05-16 16:00:00,73.0,-99.9,-100.00,North,0,0.0,0.0,59,0.00,,,-99.99,,2013-05-16 20:00:00,
2013-05-16 16:10:00,-999.0,-99.9,-100.00,NNE,25,0.0,0.0,58,0.00,,,-99.99,,2013-05-16 20:10:00,
2013-05-16 16:20:00,73.0,-99.9,-100.00,North,5,0.0,0.0,57,0.00,,,-99.99,,2013-05-16 20:20:00,
2013-05-16 16:30:00,73.0,-99.9,-100.00,NW,325,0.0,0.0,58,0.00,,,-99.99,,2013-05-16 20:30:00,
2013-05-16 16:40:00,-999.0,-99.9,-100.00,NNE,20,0.0,0.0,58,0.00,,,-99.99,,2013-05-16 20:40:00,
2013-05-16 16:50:00,75.0,59.0,-100.00,North,0,0.0,0.0,58,0.00,,,-99.99,,2013-05-16 20:50:00,
2013-05-16 17:00:00,74.0,58.0,-100.00,North,355,0.0,0.0,56,0.00,,,-99.99,,2013-05-16 21:00:00,
2013-05-16 17:10:00,76.0,-99.9,-100.00,NNW,345,0.0,0.0,56,0.00,,,-99.99,,2013-05-16 21:10:00,
2013-05-16 17:20:00,77.0,-99.9,-100.00,North,350,0.0,0.0,51,0.00,,,-99.99,,2013-05-16 21:20:00,
2013-05-16 17:29:00,77.0,56.0,-100.00,NNE,20,0.0,0.0,48,0.00,,,-99.99,,2013-05-16 21:29:00,
2013-05-16 17:38:00,77.0,58.0,-100.00,NNW,330,0.0,0.0,50,0.00,,,-99.99,,2013-05-16 21:38:00,
2013-05-16 17:50:00,77.0,-99.9,-100.00,North,0,0.0,0.0,53,0.00,,,-99.99,,2013-05-16 21:50:00,
2013-05-16 18:00:00,-999.0,-99.9,-100.00,NNE,20,0.0,0.0,57,0.00,,,-99.99,,2013-05-16 22:00:00,
2013-05-16 18:08:00,76.0,60.0,-100.00,North,0,0.0,0.0,57,0.00,,,-99.99,,2013-05-16 22:08:00,
2013-05-16 18:21:00,76.0,61.0,-100.00,North,0,0.0,0.0,58,0.00,,,-99.99,,2013-05-16 22:21:00,
2013-05-16 18:30:00,76.0,61.0,-100.00,NW,310,0.0,0.0,59,0.00,,,-99.99,,2013-05-16 22:30:00,
2013-05-16 18:40:00,76.0,61.0,-100.00,NW,310,0.0,0.0,60,0.00,,,-99.99,,2013-05-16 22:40:00,
2013-05-16 18:51:00,76.0,61.0,-100.00,NW,315,0.0,0.0,60,0.00,,,-99.99,,2013-05-16 22:51:00,
2013-05-16 19:00:00,75.0,61.0,-100.00,NNW,345,0.0,0.0,62,0.00,,,-99.99,,2013-05-16 23:00:00,
2013-05-16 19:06:00,75.0,61.0,-100.00,North,0,0.0,0.0,60,0.00,,,-99.99,,2013-05-16 23:06:00,
2013-05-16 19:16:00,76.0,61.0,-100.00,NNW,330,0.0,0.0,61,0.00,,,-99.99,,2013-05-16 23:16:00,
2013-05-16 19:24:00,75.0,60.0,-100.00,North,10,0.0,0.0,59,0.00,,,-99.99,,2013-05-16 23:24:00,
2013-05-16 19:35:00,75.0,58.0,-100.00,North,0,0.0,0.0,56,0.00,,,-99.99,,2013-05-16 23:35:00,
2013-05-16 19:45:00,75.0,59.0,-100.00,NW,305,0.0,0.0,59,0.00,,,-99.99,,2013-05-16 23:45:00,
2013-05-16 19:54:00,73.0,62.0,-100.00,NW,320,0.0,0.0,68,0.00,,,-99.99,,2013-05-16 23:54:00,
2013-05-16 20:02:00,73.0,62.0,-100.00,NNW,330,0.0,0.0,69,0.00,,,-99.99,,2013-05-17 00:02:00,
2013-05-16 20:13:00,73.0,62.0,-100.00,NW,320,0.0,0.0,69,0.00,,,-99.99,,2013-05-17 00:13:00,
2013-05-16 20:22:00,73.0,62.0,-100.00,North,350,0.0,0.0,69,0.00,,,-99.99,,2013-05-17 00:22:00,
2013-05-16 20:33:00,72.0,62.0,-100.00,NW,315,0.0,0.0,71,0.00,,,-99.99,,2013-05-17 00:33:00,
2013-05-16 20:43:00,72.0,63.0,-100.00,NNW,330,0.0,0.0,73,0.00,,,-99.99,,2013-05-17 00:43:00,
2013-05-16 20:52:00,71.0,63.0,-100.00,North,0,0.0,0.0,75,0.00,,,-99.99,,2013-05-17 00:52:00,
2013-05-16 21:03:00,71.0,63.0,-100.00,North,10,0.0,0.0,77,0.00,,,-99.99,,2013-05-17 01:03:00,
2013-05-16 21:12:00,71.0,63.0,-100.00,North,0,0.0,0.0,78,0.00,,,-99.99,,2013-05-17 01:12:00,
2013-05-16 21:23:00,70.0,63.0,-100.00,North,350,0.0,0.0,80,0.00,,,-99.99,,2013-05-17 01:23:00,
2013-05-16 21:32:00,69.0,63.0,-100.00,North,0,0.0,0.0,80,0.00,,,-99.99,,2013-05-17 01:32:00,
2013-05-16 21:43:00,69.0,63.0,-100.00,North,10,0.0,0.0,81,0.00,,,-99.99,,2013-05-17 01:43:00,
2013-05-16 21:52:00,69.0,63.0,-100.00,North,10,0.0,0.0,81,0.00,,,-99.99,,2013-05-17 01:52:00,
2013-05-16 22:02:00,68.0,63.0,-100.00,North,0,0.0,0.0,85,0.00,,,-99.99,,2013-05-17 02:02:00,
2013-05-16 22:11:00,67.0,63.0,-100.00,NNE,15,0.0,0.0,86,0.00,,,-99.99,,2013-05-17 02:11:00,
2013-05-16 22:22:00,67.0,63.0,-100.00,North,0,0.0,0.0,86,0.00,,,-99.99,,2013-05-17 02:22:00,
2013-05-16 22:32:00,67.0,63.0,-100.00,NNE,25,0.0,0.0,87,0.00,,,-99.99,,2013-05-17 02:32:00,
2013-05-16 22:42:00,66.0,63.0,-100.00,NNE,15,0.0,0.0,90,0.00,,,-99.99,,2013-05-17 02:42:00,
2013-05-16 22:53:00,66.0,63.0,-100.00,North,0,0.0,0.0,89,0.00,,,-99.99,,2013-05-17 02:53:00,
2013-05-16 23:02:00,66.0,63.0,-100.00,NW,320,0.0,0.0,89,0.00,,,-99.99,,2013-05-17 03:02:00,
2013-05-16 23:11:00,65.0,63.0,-100.00,NNW,340,0.0,0.0,90,0.00,,,-99.99,,2013-05-17 03:11:00,
2013-05-16 23:23:00,65.0,63.0,-100.00,NNW,345,0.0,0.0,91,0.00,,,-99.99,,2013-05-17 03:23:00,
2013-05-16 23:34:00,65.0,63.0,-100.00,NW,315,0.0,0.0,92,0.00,,,-99.99,,2013-05-17 03:34:00,
2013-05-16 23:43:00,65.0,63.0,-100.00,NW,320,0.0,0.0,93,0.00,,,-99.99,,2013-05-17 03:43:00,
2013-05-16 23:53:00,65.0,63.0,-100.00,NW,310,0.0,0.0,93,0.00,,,-99.99,,2013-05-17 03:53:00,